Time;durP1;ratioP1;P1;durP2;ratioP2;P2;SDS_P1;SDS_P2;PMS_P1;PMS_P2;Temp;Humidity;BMP_temperature;BMP_pressure;BME280_temperature;BME280_humidity;BME280_pressure;Samples;Min_cycle;Max_cycle;Signal;HPM_P1;HPM_P2
2022/12/22 03:28:07;;;;;;;8.77;6.03;;;;;;;;;;5085910;28;20043;-68
2022/12/22 03:30:32;;;;;;;9.55;5.85;;;;;;;;;;5085561;28;20030;-67
2022/12/22 03:32:58;;;;;;;9.60;5.60;;;;;;;;;;5079952;28;20043;-67
2022/12/22 03:35:24;;;;;;;7.72;5.93;;;;;;;;;;5082769;28;20119;-67
2022/12/22 03:37:49;;;;;;;6.97;4.95;;;;;;;;;;5081211;28;20161;-67
2022/12/22 03:40:14;;;;;;;12.35;6.47;;;;;;;;;;5083488;28;20040;-68
2022/12/22 03:48:08;;;;;;;10.75;6.35;;;;;;;;;;5087376;28;20104;-67
2022/12/22 03:50:33;;;;;;;8.40;6.00;;;;;;;;;;5088030;28;20464;-67
2022/12/22 03:52:59;;;;;;;9.40;6.40;;;;;;;;;;5084864;28;20454;-67
2022/12/22 03:55:24;;;;;;;9.25;6.03;;;;;;;;;;5088483;28;20047;-67
2022/12/22 03:57:50;;;;;;;8.63;5.90;;;;;;;;;;5087395;28;20090;-68
2022/12/22 04:00:15;;;;;;;7.85;5.35;;;;;;;;;;5082959;28;20115;-68
2022/12/22 04:02:41;;;;;;;6.25;4.93;;;;;;;;;;5089329;28;20032;-67
2022/12/22 04:05:07;;;;;;;6.72;5.00;;;;;;;;;;5091214;28;20040;-67
2022/12/22 04:07:32;;;;;;;8.63;5.22;;;;;;;;;;5089961;28;20040;-67
2022/12/22 04:12:53;;;;;;;7.47;5.28;;;;;;;;;;5087872;28;20455;-67
2022/12/22 04:15:23;;;;;;;8.82;4.85;;;;;;;;;;5089526;28;20401;-72
2022/12/22 04:17:49;;;;;;;7.05;5.28;;;;;;;;;;5088454;28;20028;-68
2022/12/22 04:20:14;;;;;;;9.27;5.30;;;;;;;;;;5086552;28;20062;-67
2022/12/22 04:22:40;;;;;;;6.43;4.70;;;;;;;;;;5085243;28;20448;-67
2022/12/22 04:25:05;;;;;;;10.13;5.25;;;;;;;;;;5088672;28;20054;-67
2022/12/22 04:27:31;;;;;;;8.10;5.00;;;;;;;;;;5089858;28;20395;-67
2022/12/22 04:29:56;;;;;;;8.70;4.85;;;;;;;;;;5087362;28;20028;-67
2022/12/22 04:32:21;;;;;;;7.20;5.00;;;;;;;;;;5093173;28;20040;-67
2022/12/22 04:34:47;;;;;;;7.32;5.10;;;;;;;;;;5089801;28;20498;-67
2022/12/22 04:37:12;;;;;;;6.97;5.28;;;;;;;;;;5086023;28;20530;-67
2022/12/22 04:39:37;;;;;;;8.00;5.40;;;;;;;;;;5081508;28;20094;-68
2022/12/22 04:42:03;;;;;;;9.02;5.93;;;;;;;;;;5080707;28;20040;-68
2022/12/22 04:44:28;;;;;;;8.48;5.70;;;;;;;;;;5083645;28;20032;-68
2022/12/22 04:46:54;;;;;;;9.00;5.32;;;;;;;;;;5085146;28;20032;-67
2022/12/22 04:49:19;;;;;;;6.75;4.97;;;;;;;;;;5084985;28;20075;-67
2022/12/22 04:51:44;;;;;;;9.98;5.38;;;;;;;;;;5082207;28;20054;-67
2022/12/22 04:54:10;;;;;;;9.73;5.00;;;;;;;;;;5080878;28;20091;-68
2022/12/22 04:56:35;;;;;;;8.05;4.50;;;;;;;;;;5079831;28;20059;-68
2022/12/22 04:59:01;;;;;;;8.27;4.85;;;;;;;;;;5077640;28;20043;-62
2022/12/22 05:01:26;;;;;;;7.05;4.95;;;;;;;;;;5076252;28;20039;-65
2022/12/22 05:03:52;;;;;;;6.28;5.03;;;;;;;;;;5082693;28;20031;-64
2022/12/22 05:06:18;;;;;;;7.70;4.72;;;;;;;;;;5083819;28;20032;-64
2022/12/22 05:08:43;;;;;;;7.53;4.88;;;;;;;;;;5081647;28;20044;-63
2022/12/22 05:11:09;;;;;;;7.20;4.85;;;;;;;;;;5081785;28;20036;-64
2022/12/22 05:13:35;;;;;;;7.40;4.50;;;;;;;;;;5083849;28;20044;-64
2022/12/22 05:16:05;;;;;;;5.22;3.80;;;;;;;;;;5082751;28;20081;-62
2022/12/22 05:18:30;;;;;;;5.40;4.05;;;;;;;;;;5084388;28;20044;-64
2022/12/22 05:20:56;;;;;;;7.18;4.75;;;;;;;;;;5081909;28;20031;-62
2022/12/22 05:23:21;;;;;;;7.25;3.90;;;;;;;;;;5086271;28;20061;-64
2022/12/22 05:25:47;;;;;;;8.60;4.03;;;;;;;;;;5082887;28;20040;-65
2022/12/22 05:28:12;;;;;;;7.35;3.72;;;;;;;;;;5086201;28;20269;-65
2022/12/22 05:30:40;;;;;;;7.05;3.78;;;;;;;;;;5091276;28;20051;-65
2022/12/22 05:33:05;;;;;;;12.25;3.83;;;;;;;;;;5087366;28;20043;-62
2022/12/22 05:35:30;;;;;;;11.23;4.32;;;;;;;;;;5085921;28;20040;-62
2022/12/22 05:37:56;;;;;;;10.07;5.03;;;;;;;;;;5084768;28;20547;-62
2022/12/22 05:40:21;;;;;;;10.25;4.63;;;;;;;;;;5088747;28;20035;-62
2022/12/22 05:42:46;;;;;;;6.95;3.33;;;;;;;;;;5089406;28;20478;-66
2022/12/22 05:45:18;;;;;;;6.20;3.90;;;;;;;;;;5089241;28;20071;-64
2022/12/22 05:47:45;;;;;;;9.98;3.15;;;;;;;;;;5092087;28;20767;-63
2022/12/22 05:50:12;;;;;;;6.72;3.05;;;;;;;;;;5091630;28;20057;-63
2022/12/22 05:52:38;;;;;;;4.85;2.58;;;;;;;;;;5090974;28;20084;-62
2022/12/22 05:55:04;;;;;;;7.53;2.95;;;;;;;;;;5085687;28;20036;-63
2022/12/22 05:57:30;;;;;;;4.90;2.63;;;;;;;;;;5089037;28;20497;-64
2022/12/22 05:59:55;;;;;;;2.72;1.70;;;;;;;;;;5089933;28;20140;-65
2022/12/22 06:02:20;;;;;;;4.45;1.10;;;;;;;;;;5085953;28;20133;-64
2022/12/22 06:04:46;;;;;;;2.63;1.48;;;;;;;;;;5086958;28;20032;-63
2022/12/22 06:07:11;;;;;;;2.72;0.95;;;;;;;;;;5088536;28;20573;-63
2022/12/22 06:09:37;;;;;;;5.30;1.30;;;;;;;;;;5090957;28;20036;-63
2022/12/22 06:12:03;;;;;;;1.20;0.95;;;;;;;;;;5088352;28;20375;-77
2022/12/22 06:14:28;;;;;;;1.58;0.70;;;;;;;;;;5085580;28;20039;-75
2022/12/22 06:16:53;;;;;;;4.70;1.00;;;;;;;;;;5089631;28;21185;-75
2022/12/22 06:19:19;;;;;;;1.00;0.50;;;;;;;;;;5087148;28;20036;-75
2022/12/22 06:21:44;;;;;;;3.67;0.95;;;;;;;;;;5086503;28;20058;-75
2022/12/22 06:24:09;;;;;;;1.88;0.60;;;;;;;;;;5091990;28;20027;-76
2022/12/22 06:26:35;;;;;;;3.05;0.80;;;;;;;;;;5089610;28;20470;-75
2022/12/22 06:29:00;;;;;;;4.68;0.90;;;;;;;;;;5090049;28;20093;-75
2022/12/22 06:31:26;;;;;;;2.97;1.00;;;;;;;;;;5086134;28;20047;-76
2022/12/22 06:33:51;;;;;;;2.75;0.73;;;;;;;;;;5084201;28;20074;-76
2022/12/22 06:36:16;;;;;;;3.03;0.82;;;;;;;;;;5083598;28;20032;-76
2022/12/22 06:38:42;;;;;;;4.57;1.00;;;;;;;;;;5087360;28;20102;-76
2022/12/22 06:41:07;;;;;;;3.95;0.93;;;;;;;;;;5091233;28;20036;-76
2022/12/22 06:43:32;;;;;;;1.95;0.63;;;;;;;;;;5095203;28;20039;-76
2022/12/22 06:45:58;;;;;;;1.60;0.68;;;;;;;;;;5090195;28;20040;-75
2022/12/22 06:48:23;;;;;;;2.83;0.80;;;;;;;;;;5087629;28;20119;-75
2022/12/22 06:50:49;;;;;;;1.27;0.70;;;;;;;;;;5088765;28;20088;-75
2022/12/22 06:53:14;;;;;;;2.33;1.20;;;;;;;;;;5078628;28;20032;-75
2022/12/22 06:55:39;;;;;;;1.98;0.80;;;;;;;;;;5083697;28;20032;-75
2022/12/22 06:58:05;;;;;;;2.15;0.80;;;;;;;;;;5081275;28;20089;-74
2022/12/22 07:00:31;;;;;;;2.60;0.70;;;;;;;;;;5086276;28;20115;-75
2022/12/22 07:02:56;;;;;;;2.13;0.70;;;;;;;;;;5079489;28;20032;-75
2022/12/22 07:05:22;;;;;;;2.22;0.60;;;;;;;;;;5091155;28;20093;-76
2022/12/22 07:07:48;;;;;;;2.50;0.73;;;;;;;;;;5081717;28;20032;-75
2022/12/22 07:10:14;;;;;;;1.52;0.47;;;;;;;;;;5083917;28;20493;-76
2022/12/22 07:12:40;;;;;;;2.65;0.60;;;;;;;;;;5081309;28;20376;-76
2022/12/22 07:15:06;;;;;;;3.42;0.90;;;;;;;;;;5081943;28;20031;-76
2022/12/22 07:17:31;;;;;;;2.42;0.60;;;;;;;;;;5082292;28;20035;-77
2022/12/22 07:19:57;;;;;;;4.80;1.15;;;;;;;;;;5086296;28;20032;-75
2022/12/22 07:22:22;;;;;;;4.93;1.15;;;;;;;;;;5085415;28;20126;-75
2022/12/22 07:24:48;;;;;;;3.00;0.98;;;;;;;;;;5082404;28;20032;-75
2022/12/22 07:27:14;;;;;;;5.32;0.98;;;;;;;;;;5088558;28;20062;-75
2022/12/22 07:29:40;;;;;;;3.53;0.60;;;;;;;;;;5079950;28;20055;-75
2022/12/22 07:32:06;;;;;;;4.72;1.13;;;;;;;;;;5076585;28;20036;-75
2022/12/22 07:34:32;;;;;;;6.20;1.00;;;;;;;;;;5080928;28;20039;-76
2022/12/22 07:36:57;;;;;;;4.72;1.13;;;;;;;;;;5080697;28;21281;-76
2022/12/22 07:39:22;;;;;;;5.57;1.02;;;;;;;;;;5078470;28;20295;-75
2022/12/22 07:44:32;;;;;;;7.75;1.05;;;;;;;;;;5080512;28;20063;-76
2022/12/22 07:46:57;;;;;;;6.00;1.08;;;;;;;;;;5079259;28;20028;-76
2022/12/22 07:52:07;;;;;;;4.95;1.10;;;;;;;;;;5081673;28;20505;-75
2022/12/22 07:54:33;;;;;;;6.95;1.35;;;;;;;;;;5080712;28;20031;-75
2022/12/22 07:56:59;;;;;;;4.68;1.00;;;;;;;;;;5075914;28;20181;-75
2022/12/22 07:59:24;;;;;;;3.00;0.73;;;;;;;;;;5085305;28;20118;-76
2022/12/22 08:01:49;;;;;;;3.55;1.00;;;;;;;;;;5065145;28;20039;-76
2022/12/22 08:04:15;;;;;;;3.67;0.80;;;;;;;;;;5071753;28;20088;-75
2022/12/22 08:06:41;;;;;;;5.70;1.10;;;;;;;;;;5080429;28;20098;-75
2022/12/22 08:09:08;;;;;;;3.25;1.15;;;;;;;;;;5084043;28;20110;-75
2022/12/22 08:11:33;;;;;;;4.47;1.20;;;;;;;;;;5076282;28;20032;-75
2022/12/22 08:13:59;;;;;;;2.70;0.77;;;;;;;;;;5081433;28;20036;-75
2022/12/22 08:16:24;;;;;;;3.72;0.80;;;;;;;;;;5078569;28;20035;-75
2022/12/22 08:18:50;;;;;;;5.68;1.17;;;;;;;;;;5085634;28;20117;-75
2022/12/22 08:21:15;;;;;;;1.95;0.70;;;;;;;;;;5080039;28;20067;-75
2022/12/22 08:23:41;;;;;;;2.13;0.50;;;;;;;;;;5092128;28;20036;-77
2022/12/22 08:26:43;;;;;;;1.35;0.40;;;;;;;;;;5092975;28;20035;-75
2022/12/22 08:29:20;;;;;;;4.28;0.70;;;;;;;;;;5091089;28;20107;-75
2022/12/22 08:31:45;;;;;;;3.03;0.52;;;;;;;;;;5086107;28;20036;-75
2022/12/22 08:34:15;;;;;;;2.38;0.63;;;;;;;;;;5085714;28;20074;-75
2022/12/22 08:36:47;;;;;;;2.47;0.50;;;;;;;;;;5085393;28;20086;-77
2022/12/22 08:39:14;;;;;;;4.07;0.60;;;;;;;;;;5086475;28;20344;-75
2022/12/22 08:41:49;;;;;;;4.22;0.52;;;;;;;;;;5087142;28;20299;-76
2022/12/22 08:44:15;;;;;;;2.60;0.40;;;;;;;;;;5088954;28;20042;-76
2022/12/22 08:46:40;;;;;;;2.90;0.65;;;;;;;;;;5087147;28;20039;-74
2022/12/22 08:49:06;;;;;;;2.13;0.50;;;;;;;;;;5090608;28;20035;-78
2022/12/22 08:51:32;;;;;;;3.35;0.65;;;;;;;;;;5088275;28;20114;-76
2022/12/22 08:53:57;;;;;;;5.25;1.20;;;;;;;;;;5082588;28;20039;-76
2022/12/22 08:56:23;;;;;;;5.93;1.50;;;;;;;;;;5078204;28;20168;-76
2022/12/22 08:58:48;;;;;;;2.15;0.70;;;;;;;;;;5080131;28;20036;-77
2022/12/22 09:01:21;;;;;;;7.65;0.88;;;;;;;;;;5074607;28;20035;-77
2022/12/22 09:03:51;;;;;;;4.60;0.77;;;;;;;;;;5079385;28;20178;-77
2022/12/22 09:06:18;;;;;;;4.93;0.73;;;;;;;;;;5075283;28;20031;-76
2022/12/22 09:08:44;;;;;;;5.57;0.80;;;;;;;;;;5079343;28;20043;-77
2022/12/22 09:11:09;;;;;;;2.88;0.70;;;;;;;;;;5079774;28;20044;-62
2022/12/22 09:13:34;;;;;;;5.93;1.20;;;;;;;;;;5080117;28;20060;-62
2022/12/22 09:16:04;;;;;;;5.07;1.05;;;;;;;;;;5076786;28;20046;-60
2022/12/22 09:18:30;;;;;;;3.20;1.35;;;;;;;;;;5078830;28;20046;-59
2022/12/22 09:20:55;;;;;;;3.92;1.15;;;;;;;;;;5076380;28;20403;-61
2022/12/22 09:23:21;;;;;;;4.47;1.40;;;;;;;;;;5084058;28;20039;-60
2022/12/22 09:25:46;;;;;;;4.82;1.42;;;;;;;;;;5084768;27;20040;-61
2022/12/22 09:28:12;;;;;;;7.47;1.67;;;;;;;;;;5079228;28;20085;-61
2022/12/22 09:30:37;;;;;;;5.80;1.35;;;;;;;;;;5077425;28;20479;-61
2022/12/22 09:33:02;;;;;;;6.13;1.60;;;;;;;;;;5075832;28;22369;-61
2022/12/22 09:35:28;;;;;;;6.28;1.70;;;;;;;;;;5078585;28;20028;-60
2022/12/22 09:37:53;;;;;;;9.10;1.50;;;;;;;;;;5077536;28;20035;-59
2022/12/22 09:40:21;;;;;;;7.10;1.40;;;;;;;;;;5083354;28;20428;-59
2022/12/22 09:42:46;;;;;;;5.07;1.40;;;;;;;;;;5080363;28;20031;-60
2022/12/22 09:45:18;;;;;;;3.40;1.20;;;;;;;;;;5080939;28;20133;-60
2022/12/22 09:47:52;;;;;;;6.57;2.10;;;;;;;;;;5078337;28;20086;-60
2022/12/22 09:50:22;;;;;;;9.00;2.05;;;;;;;;;;5075407;28;20079;-60
2022/12/22 09:53:00;;;;;;;6.40;1.40;;;;;;;;;;5073778;28;20024;-60
2022/12/22 09:55:25;;;;;;;6.47;1.20;;;;;;;;;;5079197;28;20021;-60
2022/12/22 09:57:52;;;;;;;6.38;1.65;;;;;;;;;;5079599;28;20084;-60
2022/12/22 10:00:21;;;;;;;9.38;1.42;;;;;;;;;;5076278;28;20114;-60
2022/12/22 10:03:16;;;;;;;6.03;0.95;;;;;;;;;;5076516;28;20036;-60
2022/12/22 10:05:53;;;;;;;5.85;1.60;;;;;;;;;;5076237;28;20176;-60
2022/12/22 10:08:27;;;;;;;8.30;1.65;;;;;;;;;;5078401;28;20486;-59
2022/12/22 10:10:54;;;;;;;5.72;1.80;;;;;;;;;;5076411;28;20049;-60
2022/12/22 10:13:20;;;;;;;7.85;2.40;;;;;;;;;;5074286;28;20151;-60
2022/12/22 10:15:45;;;;;;;6.40;2.13;;;;;;;;;;5078737;28;20138;-59
2022/12/22 10:18:26;;;;;;;6.07;1.92;;;;;;;;;;5083435;28;20047;-60
2022/12/22 10:21:03;;;;;;;9.73;2.15;;;;;;;;;;5079869;28;20055;-60
2022/12/22 10:23:30;;;;;;;7.20;1.83;;;;;;;;;;5093651;28;20063;-60
2022/12/22 10:25:55;;;;;;;8.38;2.20;;;;;;;;;;5091908;28;20071;-60
2022/12/22 10:28:26;;;;;;;11.00;2.22;;;;;;;;;;5090864;28;20071;-60
2022/12/22 10:31:13;;;;;;;7.28;1.90;;;;;;;;;;5092459;28;20036;-60
2022/12/22 10:33:39;;;;;;;4.68;1.52;;;;;;;;;;5087977;28;20039;-60
2022/12/22 10:36:06;;;;;;;5.00;1.70;;;;;;;;;;5092031;28;20413;-60
2022/12/22 10:38:33;;;;;;;9.48;1.73;;;;;;;;;;5098922;28;20032;-60
2022/12/22 10:41:11;;;;;;;6.18;1.33;;;;;;;;;;5092413;28;20032;-60
2022/12/22 10:43:44;;;;;;;7.68;1.23;;;;;;;;;;5091377;28;20581;-61
2022/12/22 10:46:10;;;;;;;5.30;1.35;;;;;;;;;;5097158;28;20031;-61
2022/12/22 10:48:37;;;;;;;8.43;1.15;;;;;;;;;;5089256;28;20046;-61
2022/12/22 10:51:06;;;;;;;8.20;1.58;;;;;;;;;;5081732;28;20047;-57
2022/12/22 10:53:48;;;;;;;3.13;1.20;;;;;;;;;;5086783;27;20457;-58
2022/12/22 10:56:31;;;;;;;3.47;1.00;;;;;;;;;;5081523;28;20031;-60
2022/12/22 10:59:02;;;;;;;4.57;1.13;;;;;;;;;;5091263;28;20035;-60
2022/12/22 11:01:34;;;;;;;4.10;1.20;;;;;;;;;;5083979;28;20051;-60
2022/12/22 11:04:22;;;;;;;4.28;1.00;;;;;;;;;;5082213;28;20034;-60
2022/12/22 11:06:48;;;;;;;3.63;1.38;;;;;;;;;;5080032;28;20043;-59
2022/12/22 11:09:14;;;;;;;3.28;0.93;;;;;;;;;;5077047;28;20085;-55
2022/12/22 11:11:45;;;;;;;4.88;1.13;;;;;;;;;;5082390;28;20159;-60
2022/12/22 11:14:36;;;;;;;5.47;0.90;;;;;;;;;;5087863;28;20036;-60
2022/12/22 11:17:10;;;;;;;3.67;0.90;;;;;;;;;;5080394;28;20749;-62
2022/12/22 11:19:54;;;;;;;6.35;1.00;;;;;;;;;;5091615;28;20535;-61
2022/12/22 11:22:45;;;;;;;4.15;1.05;;;;;;;;;;5086216;28;20180;-59
2022/12/22 11:25:23;;;;;;;2.88;0.88;;;;;;;;;;5087258;28;20052;-60
2022/12/22 11:28:26;;;;;;;3.03;1.08;;;;;;;;;;5082247;28;20040;-57
2022/12/22 11:31:15;;;;;;;2.22;1.10;;;;;;;;;;5081792;28;20032;-60
2022/12/22 11:34:06;;;;;;;2.47;1.02;;;;;;;;;;5088008;27;20060;-59
2022/12/22 11:36:50;;;;;;;3.60;1.00;;;;;;;;;;5045233;28;20047;-59
2022/12/22 11:39:22;;;;;;;3.83;0.80;;;;;;;;;;5081752;28;20040;-60
2022/12/22 11:42:06;;;;;;;2.28;1.13;;;;;;;;;;5087118;28;20050;-61
2022/12/22 11:44:46;;;;;;;;;;;;;;;;;;5085084;28;20043;-63
2022/12/22 11:47:22;;;;;;;2.78;1.02;;;;;;;;;;5080065;28;19924;-62
2022/12/22 11:50:16;;;;;;;4.25;0.93;;;;;;;;;;5081716;28;20495;-62
2022/12/22 11:52:57;;;;;;;1.65;0.60;;;;;;;;;;5085303;28;20478;-60
2022/12/22 11:55:30;;;;;;;0.85;0.57;;;;;;;;;;5088581;28;20032;-60
2022/12/22 11:57:55;;;;;;;;;;;;;;;;;;5090630;28;20140;-56
2022/12/22 12:00:21;;;;;;;1.17;0.52;;;;;;;;;;5086125;28;20371;-59
2022/12/22 12:03:05;;;;;;;2.25;0.43;;;;;;;;;;5091421;28;20040;-59
2022/12/22 12:05:41;;;;;;;1.13;0.43;;;;;;;;;;5079277;28;20332;-59
2022/12/22 12:08:16;;;;;;;1.75;0.40;;;;;;;;;;5084810;28;20110;-58
2022/12/22 12:10:56;;;;;;;4.13;0.50;;;;;;;;;;5084115;28;20494;-60
2022/12/22 12:13:46;;;;;;;1.10;0.50;;;;;;;;;;5084738;28;20094;-60
2022/12/22 12:16:35;;;;;;;1.33;0.50;;;;;;;;;;5088362;28;20835;-61
2022/12/22 12:19:16;;;;;;;0.57;0.38;;;;;;;;;;5093680;28;20062;-61
2022/12/22 12:22:03;;;;;;;0.68;0.30;;;;;;;;;;5094637;27;20424;-60
2022/12/22 12:24:48;;;;;;;0.68;0.30;;;;;;;;;;5089442;28;20391;-61
2022/12/22 12:27:46;;;;;;;0.95;0.52;;;;;;;;;;5089661;28;20040;-61
2022/12/22 12:30:20;;;;;;;0.50;0.40;;;;;;;;;;5054726;28;20101;-61
2022/12/22 12:33:18;;;;;;;0.77;0.40;;;;;;;;;;5087643;28;20054;-61
2022/12/22 12:36:14;;;;;;;1.98;0.60;;;;;;;;;;5067603;28;20047;-61
2022/12/22 12:38:59;;;;;;;0.70;0.30;;;;;;;;;;5087420;28;20038;-61
2022/12/22 12:42:14;;;;;;;1.88;0.93;;;;;;;;;;5088288;28;20101;-59
2022/12/22 12:44:39;;;;;;;0.93;0.50;;;;;;;;;;5096279;28;20040;-57
2022/12/22 12:47:25;;;;;;;0.75;0.40;;;;;;;;;;5090244;28;20383;-56
2022/12/22 12:49:52;;;;;;;1.08;0.40;;;;;;;;;;5086353;28;20325;-59
2022/12/22 12:52:37;;;;;;;0.50;0.50;;;;;;;;;;5083799;28;20388;-58
2022/12/22 12:55:29;;;;;;;0.60;0.50;;;;;;;;;;5085814;28;20048;-56
2022/12/22 12:57:56;;;;;;;0.73;0.50;;;;;;;;;;5082577;28;20148;-67
2022/12/22 13:00:37;;;;;;;1.25;0.63;;;;;;;;;;5083185;28;20482;-60
2022/12/22 13:03:27;;;;;;;1.13;0.50;;;;;;;;;;5084674;28;20044;-54
2022/12/22 13:05:59;;;;;;;1.65;0.80;;;;;;;;;;5079587;28;20036;-57
2022/12/22 13:08:32;;;;;;;1.23;0.90;;;;;;;;;;5072257;28;20051;-56
2022/12/22 13:10:57;;;;;;;;;;;;;;;;;;5089785;28;20029;-54
2022/12/22 13:13:25;;;;;;;6.00;1.50;;;;;;;;;;5088898;28;19981;-55
2022/12/22 13:15:59;;;;;;;2.47;0.80;;;;;;;;;;5079188;28;20059;-54
2022/12/22 13:18:25;;;;;;;1.75;0.68;;;;;;;;;;5081932;28;20199;-54
2022/12/22 13:21:13;;;;;;;1.08;0.50;;;;;;;;;;5087715;28;20038;-54
2022/12/22 13:23:44;;;;;;;1.67;0.70;;;;;;;;;;5091077;28;20031;-59
2022/12/22 13:26:16;;;;;;;1.25;0.70;;;;;;;;;;5085075;28;20032;-57
2022/12/22 13:28:52;;;;;;;2.17;0.70;;;;;;;;;;5081256;28;20051;-57
2022/12/22 13:31:27;;;;;;;2.30;1.48;;;;;;;;;;5073851;28;20039;-62
2022/12/22 13:34:47;;;;;;;1.60;0.68;;;;;;;;;;5076105;28;20425;-62
2022/12/22 13:37:24;;;;;;;1.35;0.50;;;;;;;;;;5086369;28;20169;-61
2022/12/22 13:40:09;;;;;;;0.50;0.50;;;;;;;;;;5081334;28;20032;-62
2022/12/22 13:42:39;;;;;;;0.88;0.52;;;;;;;;;;5084943;28;20032;-61
2022/12/22 13:45:11;;;;;;;1.38;0.40;;;;;;;;;;5088073;28;20507;-62
2022/12/22 13:47:40;;;;;;;1.17;0.70;;;;;;;;;;5075576;28;20051;-62
2022/12/22 13:50:16;;;;;;;2.95;0.70;;;;;;;;;;5079273;28;20068;-62
2022/12/22 13:52:41;;;;;;;1.20;0.47;;;;;;;;;;5087521;28;20032;-63
2022/12/22 13:55:17;;;;;;;1.25;0.77;;;;;;;;;;5082968;28;20384;-61
2022/12/22 13:57:42;;;;;;;1.02;0.80;;;;;;;;;;5082051;28;20428;-61
2022/12/22 14:00:19;;;;;;;1.75;1.15;;;;;;;;;;5085193;28;20081;-62
2022/12/22 14:02:45;;;;;;;1.42;0.73;;;;;;;;;;5077455;28;20043;-62
2022/12/22 14:05:14;;;;;;;1.00;0.50;;;;;;;;;;5071177;28;20032;-62
2022/12/22 14:07:39;;;;;;;0.70;0.50;;;;;;;;;;5086358;28;20593;-61
2022/12/22 14:10:06;;;;;;;1.55;0.68;;;;;;;;;;5086220;28;20114;-62
2022/12/22 14:12:39;;;;;;;1.20;1.10;;;;;;;;;;5084365;28;20039;-63
2022/12/22 14:15:14;;;;;;;0.80;0.70;;;;;;;;;;5083126;28;20052;-61
2022/12/22 14:17:39;;;;;;;0.88;0.70;;;;;;;;;;5086863;28;20039;-63
2022/12/22 14:20:35;;;;;;;1.38;0.50;;;;;;;;;;5090835;28;20044;-60
2022/12/22 14:23:23;;;;;;;2.60;0.70;;;;;;;;;;5072506;28;20052;-62
2022/12/22 14:25:51;;;;;;;1.05;0.90;;;;;;;;;;5087149;28;20024;-62
2022/12/22 14:28:22;;;;;;;1.10;0.80;;;;;;;;;;5094106;28;20067;-62
2022/12/22 14:30:51;;;;;;;1.83;0.65;;;;;;;;;;5082493;28;20031;-63
2022/12/22 14:33:25;;;;;;;0.35;0.30;;;;;;;;;;5084395;28;20450;-61
2022/12/22 14:35:51;;;;;;;0.50;0.50;;;;;;;;;;5086242;28;20032;-61
2022/12/22 14:38:23;;;;;;;0.55;0.38;;;;;;;;;;5092793;28;20030;-61
2022/12/22 14:40:50;;;;;;;0.40;0.40;;;;;;;;;;5082286;28;20098;-61
2022/12/22 14:43:15;;;;;;;2.13;0.47;;;;;;;;;;5084958;28;20277;-61
2022/12/22 14:45:41;;;;;;;0.50;0.50;;;;;;;;;;5085395;28;20038;-62
2022/12/22 14:48:08;;;;;;;0.65;0.40;;;;;;;;;;5095169;28;20107;-61
2022/12/22 14:50:35;;;;;;;2.45;0.57;;;;;;;;;;5082198;28;20035;-61
2022/12/22 14:53:03;;;;;;;0.70;0.40;;;;;;;;;;5082697;28;20151;-62
2022/12/22 14:55:48;;;;;;;0.75;0.55;;;;;;;;;;5084687;28;20039;-61
2022/12/22 14:58:20;;;;;;;0.93;0.50;;;;;;;;;;5080841;28;20044;-65
2022/12/22 15:01:06;;;;;;;0.80;0.60;;;;;;;;;;5081293;28;20066;-62
2022/12/22 15:03:36;;;;;;;1.67;1.17;;;;;;;;;;5090522;28;20047;-60
2022/12/22 15:06:26;;;;;;;1.67;1.05;;;;;;;;;;5088424;28;20615;-61
2022/12/22 15:09:10;;;;;;;0.80;0.60;;;;;;;;;;5085561;28;20036;-61
2022/12/22 15:11:43;;;;;;;2.60;0.90;;;;;;;;;;5086682;28;20046;-61
2022/12/22 15:14:22;;;;;;;3.20;0.80;;;;;;;;;;5090110;28;20024;-61
2022/12/22 15:16:47;;;;;;;2.10;0.90;;;;;;;;;;5087977;28;20040;-62
2022/12/22 15:19:15;;;;;;;2.97;0.93;;;;;;;;;;5093745;28;20055;-62
2022/12/22 15:21:41;;;;;;;1.70;0.73;;;;;;;;;;5085716;28;20040;-63
2022/12/22 15:24:14;;;;;;;1.48;0.80;;;;;;;;;;5090059;28;20139;-62
2022/12/22 15:26:41;;;;;;;3.78;0.82;;;;;;;;;;5085752;28;20479;-61
2022/12/22 15:29:06;;;;;;;2.97;0.95;;;;;;;;;;5098045;28;20042;-61
2022/12/22 15:31:32;;;;;;;3.20;0.95;;;;;;;;;;5088846;28;20031;-62
2022/12/22 15:34:05;;;;;;;1.90;0.88;;;;;;;;;;5087422;28;20059;-61
2022/12/22 15:36:31;;;;;;;2.35;1.00;;;;;;;;;;5087575;28;20051;-61
2022/12/22 15:38:56;;;;;;;2.22;0.73;;;;;;;;;;5091273;28;20028;-61
2022/12/22 15:41:22;;;;;;;1.98;0.80;;;;;;;;;;5082954;28;20032;-62
2022/12/22 15:43:48;;;;;;;1.15;0.68;;;;;;;;;;5087869;28;20032;-61
2022/12/22 15:46:18;;;;;;;0.95;0.70;;;;;;;;;;5084859;28;20063;-62
2022/12/22 15:48:44;;;;;;;1.15;0.80;;;;;;;;;;5092346;28;20205;-62
2022/12/22 15:51:26;;;;;;;1.92;0.65;;;;;;;;;;5077757;28;20138;-60
2022/12/22 15:53:52;;;;;;;1.10;0.80;;;;;;;;;;5083555;28;20082;-61
2022/12/22 15:56:21;;;;;;;0.98;0.90;;;;;;;;;;5087836;28;20047;-62
2022/12/22 15:58:46;;;;;;;1.10;0.90;;;;;;;;;;5089182;28;20479;-63
2022/12/22 16:01:12;;;;;;;1.40;0.80;;;;;;;;;;5085068;28;20035;-61
2022/12/22 16:03:38;;;;;;;2.55;1.50;;;;;;;;;;5091309;28;20024;-61
2022/12/22 16:06:05;;;;;;;2.60;1.52;;;;;;;;;;5098998;28;20580;-62
2022/12/22 16:08:36;;;;;;;2.10;1.10;;;;;;;;;;5093831;28;20032;-61
2022/12/22 16:11:02;;;;;;;3.17;1.40;;;;;;;;;;5079036;28;20499;-62
2022/12/22 16:13:28;;;;;;;2.33;1.33;;;;;;;;;;5082995;28;20082;-62
2022/12/22 16:15:54;;;;;;;1.58;1.00;;;;;;;;;;5087008;28;20057;-61
2022/12/22 16:18:20;;;;;;;1.55;1.17;;;;;;;;;;5088161;28;20122;-61
2022/12/22 16:20:48;;;;;;;1.80;1.13;;;;;;;;;;5092614;28;20047;-62
2022/12/22 16:23:23;;;;;;;1.50;1.10;;;;;;;;;;5093010;28;20470;-62
2022/12/22 16:25:50;;;;;;;1.20;1.10;;;;;;;;;;5093555;28;20486;-61
2022/12/22 16:28:19;;;;;;;3.35;1.50;;;;;;;;;;5094283;28;20039;-62
2022/12/22 16:30:45;;;;;;;3.25;1.45;;;;;;;;;;5086402;28;20031;-61
2022/12/22 16:33:11;;;;;;;2.38;1.40;;;;;;;;;;5088368;28;20124;-61
2022/12/22 16:35:38;;;;;;;2.28;1.50;;;;;;;;;;5089814;28;20487;-62
2022/12/22 16:38:04;;;;;;;1.85;1.40;;;;;;;;;;5081170;28;20063;-62
2022/12/22 16:40:30;;;;;;;1.73;1.40;;;;;;;;;;5093312;28;20063;-64
2022/12/22 16:43:04;;;;;;;3.38;1.30;;;;;;;;;;5090744;28;20194;-61
2022/12/22 16:45:33;;;;;;;2.22;1.80;;;;;;;;;;5091019;28;20036;-62
2022/12/22 16:48:04;;;;;;;1.55;1.27;;;;;;;;;;5092302;28;20138;-62
2022/12/22 16:50:32;;;;;;;1.90;1.38;;;;;;;;;;5090424;28;20035;-67
2022/12/22 16:53:00;;;;;;;2.28;1.40;;;;;;;;;;5087401;28;20447;-66
2022/12/22 16:55:26;;;;;;;1.25;1.10;;;;;;;;;;5081361;28;20057;-67
2022/12/22 16:57:51;;;;;;;1.58;1.23;;;;;;;;;;5089685;28;20058;-66
2022/12/22 17:00:20;;;;;;;3.22;1.63;;;;;;;;;;5087110;28;20475;-67
2022/12/22 17:02:50;;;;;;;1.98;1.30;;;;;;;;;;5087843;28;20035;-66
2022/12/22 17:05:44;;;;;;;1.88;1.13;;;;;;;;;;5085712;28;20048;-68
2022/12/22 17:08:21;;;;;;;3.00;1.55;;;;;;;;;;5087892;28;20054;-67
2022/12/22 17:10:47;;;;;;;2.45;1.20;;;;;;;;;;5085388;28;20429;-67
2022/12/22 17:13:12;;;;;;;2.72;1.45;;;;;;;;;;5087386;28;20024;-66
2022/12/22 17:15:37;;;;;;;2.85;1.65;;;;;;;;;;5087971;28;20114;-63
2022/12/22 17:18:12;;;;;;;4.45;1.60;;;;;;;;;;5082867;28;20040;-64
2022/12/22 17:20:38;;;;;;;2.95;1.85;;;;;;;;;;5087601;28;20074;-67
2022/12/22 17:23:03;;;;;;;5.20;1.85;;;;;;;;;;5094469;28;20596;-67
2022/12/22 17:25:29;;;;;;;1.65;1.17;;;;;;;;;;5089107;28;20549;-65
2022/12/22 17:27:57;;;;;;;2.55;1.38;;;;;;;;;;5094813;28;21020;-63
2022/12/22 17:30:24;;;;;;;3.78;1.40;;;;;;;;;;5084938;28;20040;-63
2022/12/22 17:32:51;;;;;;;1.45;1.17;;;;;;;;;;5086804;28;20032;-64
2022/12/22 17:35:19;;;;;;;2.50;1.27;;;;;;;;;;5089510;28;20031;-63
2022/12/22 17:37:46;;;;;;;1.25;1.00;;;;;;;;;;5091099;28;20035;-63
2022/12/22 17:40:21;;;;;;;2.78;1.27;;;;;;;;;;5093802;28;20445;-63
2022/12/22 17:42:46;;;;;;;3.15;1.20;;;;;;;;;;5084825;28;20502;-63
2022/12/22 17:45:14;;;;;;;2.55;1.15;;;;;;;;;;5082243;28;20024;-61
2022/12/22 17:47:39;;;;;;;3.00;1.58;;;;;;;;;;5086090;28;20067;-76
2022/12/22 17:50:06;;;;;;;9.75;6.38;;;;;;;;;;5085402;28;20107;-76
2022/12/22 17:52:32;;;;;;;4.07;2.78;;;;;;;;;;5089087;28;20122;-70
2022/12/22 17:54:57;;;;;;;4.05;1.90;;;;;;;;;;5085203;28;20120;-69
2022/12/22 17:57:26;;;;;;;2.53;1.70;;;;;;;;;;5089146;28;20032;-61
2022/12/22 17:59:52;;;;;;;4.78;2.70;;;;;;;;;;5088758;28;20035;-61
2022/12/22 18:02:20;;;;;;;3.08;2.05;;;;;;;;;;5080982;28;20028;-60
2022/12/22 18:04:47;;;;;;;4.88;2.47;;;;;;;;;;5085928;28;20131;-62
2022/12/22 18:07:18;;;;;;;3.53;2.33;;;;;;;;;;5088450;28;20028;-59
2022/12/22 18:09:44;;;;;;;4.65;2.70;;;;;;;;;;5083699;28;20147;-58
2022/12/22 18:12:16;;;;;;;4.40;2.33;;;;;;;;;;5078855;28;20169;-62
2022/12/22 18:14:42;;;;;;;5.60;2.95;;;;;;;;;;5082222;28;20402;-63
2022/12/22 18:17:25;;;;;;;7.32;2.95;;;;;;;;;;5079815;28;20028;-64
2022/12/22 18:19:51;;;;;;;3.47;2.17;;;;;;;;;;5083229;28;20036;-63
2022/12/22 18:22:22;;;;;;;2.88;1.58;;;;;;;;;;5084510;28;20036;-62
2022/12/22 18:24:49;;;;;;;5.10;1.70;;;;;;;;;;5083944;28;20024;-63
2022/12/22 18:27:14;;;;;;;2.10;1.42;;;;;;;;;;5082670;28;20506;-63
2022/12/22 18:29:40;;;;;;;2.30;1.50;;;;;;;;;;5082477;28;20032;-62
2022/12/22 18:32:08;;;;;;;2.47;1.70;;;;;;;;;;5084282;28;20077;-61
2022/12/22 18:34:34;;;;;;;2.13;1.60;;;;;;;;;;5081570;28;20067;-61
2022/12/22 18:37:01;;;;;;;4.15;1.70;;;;;;;;;;5088005;28;20085;-60
2022/12/22 18:39:27;;;;;;;3.00;1.77;;;;;;;;;;5087858;28;20068;-60
2022/12/22 18:41:53;;;;;;;4.78;2.03;;;;;;;;;;5081312;28;20071;-61